Time;durP1;ratioP1;P1;durP2;ratioP2;P2;SDS_P1;SDS_P2;PMS_P1;PMS_P2;Temp;Humidity;BMP_temperature;BMP_pressure;BME280_temperature;BME280_humidity;BME280_pressure;Samples;Min_cycle;Max_cycle;Signal;HPM_P1;HPM_P2
2023/01/06 00:00:36;;;;;;;4.87;2.93;;;0.50;99.90;-0.30;100670;;;;564158;251;24115;-82
2023/01/06 00:03:04;;;;;;;3.47;2.83;;;0.50;99.90;-0.30;100657;;;;561416;253;24066;-82
2023/01/06 00:05:32;;;;;;;5.80;3.33;;;0.40;99.90;-0.30;100673;;;;581834;247;24073;-81
2023/01/06 00:08:00;;;;;;;7.30;3.37;;;0.40;99.90;-0.30;100674;;;;566479;250;24090;-81
2023/01/06 00:10:27;;;;;;;5.63;3.60;;;0.40;99.90;-0.40;100680;;;;565761;253;24078;-81
2023/01/06 00:12:55;;;;;;;7.87;3.73;;;0.40;99.90;-0.40;100675;;;;581583;247;24057;-81
2023/01/06 00:15:23;;;;;;;6.07;3.10;;;0.40;99.90;-0.30;100672;;;;565699;251;24096;-80
2023/01/06 00:17:51;;;;;;;5.93;3.30;;;0.40;99.90;-0.30;100678;;;;567922;251;24170;-80
2023/01/06 00:20:19;;;;;;;7.57;4.27;;;0.40;99.90;-0.30;100683;;;;568310;251;24068;-81
2023/01/06 00:22:48;;;;;;;6.30;3.87;;;0.40;99.90;-0.30;100676;;;;559809;252;24157;-82
2023/01/06 00:25:16;;;;;;;7.27;3.90;;;0.40;99.90;-0.30;100688;;;;573281;251;24077;-82
2023/01/06 00:27:44;;;;;;;6.03;3.10;;;0.40;99.90;-0.30;100693;;;;576550;249;25112;-81
2023/01/06 00:30:12;;;;;;;7.45;3.33;;;0.40;99.90;-0.30;100695;;;;561031;251;35252;-80
2023/01/06 00:32:43;;;;;;;1.67;1.57;;;0.40;99.90;-0.40;100708;;;;558973;250;24111;-82
2023/01/06 00:35:09;;;;;;;5.90;3.50;;;0.30;99.90;-0.30;100710;;;;562042;250;24113;-82
2023/01/06 00:37:37;;;;;;;10.23;4.10;;;0.30;99.90;-0.40;100723;;;;558711;251;24118;-79
2023/01/06 00:40:05;;;;;;;8.07;3.50;;;0.30;99.90;-0.40;100728;;;;581005;247;24066;-80
2023/01/06 00:42:33;;;;;;;8.17;3.70;;;0.30;99.90;-0.40;100723;;;;573928;250;24067;-80
2023/01/06 00:45:01;;;;;;;8.03;4.70;;;0.30;99.90;-0.40;100736;;;;577267;249;25226;-79
2023/01/06 00:47:28;;;;;;;7.47;4.10;;;0.30;99.90;-0.40;100738;;;;565754;250;24144;-80
2023/01/06 00:49:56;;;;;;;7.80;3.70;;;0.30;99.90;-0.40;100733;;;;568220;251;24088;-81
2023/01/06 00:52:24;;;;;;;9.67;4.50;;;0.30;99.90;-0.40;100727;;;;559940;250;24076;-81
2023/01/06 00:54:52;;;;;;;6.97;3.80;;;0.30;99.90;-0.40;100737;;;;576933;249;24108;-80
2023/01/06 00:57:21;;;;;;;5.97;2.70;;;0.20;99.90;-0.40;100753;;;;564713;250;24096;-80
2023/01/06 00:59:49;;;;;;;5.13;2.60;;;0.20;99.90;-0.50;100750;;;;560255;251;24087;-81
2023/01/06 01:02:17;;;;;;;6.33;2.37;;;0.20;99.90;-0.60;100763;;;;573312;250;24132;-79
2023/01/06 01:04:45;;;;;;;6.40;3.13;;;0.10;99.90;-0.60;100768;;;;559586;252;24099;-79
2023/01/06 01:07:13;;;;;;;6.30;3.27;;;0.00;99.90;-0.60;100774;;;;573544;250;24103;-80
2023/01/06 01:09:41;;;;;;;3.83;2.87;;;0.00;99.90;-0.60;100777;;;;567543;251;24111;-80
2023/01/06 01:12:12;;;;;;;4.60;2.90;;;0.10;99.90;-0.60;100778;;;;567405;251;24106;-79
2023/01/06 01:14:46;;;;;;;5.73;2.60;;;0.10;99.90;-0.60;100783;;;;564353;251;24092;-80
2023/01/06 01:17:18;;;;;;;6.60;2.67;;;0.10;99.90;-0.60;100784;;;;573615;250;24105;-80
2023/01/06 01:19:48;;;;;;;8.33;2.63;;;0.10;99.90;-0.60;100797;;;;564121;251;24102;-81
2023/01/06 01:22:16;;;;;;;3.57;2.40;;;0.10;99.90;-0.60;100796;;;;560442;252;24090;-81
2023/01/06 01:24:44;;;;;;;4.07;2.43;;;0.10;99.90;-0.60;100803;;;;575975;247;24137;-82
2023/01/06 01:27:12;;;;;;;3.83;2.60;;;0.10;99.90;-0.60;100796;;;;565745;251;24038;-81
2023/01/06 01:29:41;;;;;;;3.10;2.30;;;0.10;99.90;-0.70;100810;;;;560419;251;24140;-81
2023/01/06 01:32:09;;;;;;;6.87;3.90;;;0.00;99.90;-0.70;100808;;;;562670;250;24087;-79
2023/01/06 01:34:40;;;;;;;4.17;1.93;;;0.00;99.90;-0.70;100818;;;;563897;250;24084;-81
2023/01/06 01:37:05;;;;;;;5.90;2.13;;;0.00;99.90;-0.70;100813;;;;556843;253;24118;-79
2023/01/06 01:39:33;;;;;;;4.90;2.37;;;0.00;99.90;-0.70;100816;;;;566556;250;24091;-79
2023/01/06 01:42:02;;;;;;;3.53;2.20;;;0.00;99.90;-0.80;100819;;;;561542;251;24102;-82
2023/01/06 01:44:54;;;;;;;9.40;6.63;;;0.00;99.90;-0.80;100809;;;;561500;251;24076;-80
2023/01/06 01:47:40;;;;;;;3.37;2.60;;;0.00;99.90;-0.80;100824;;;;565935;251;24097;-80
2023/01/06 01:50:13;;;;;;;4.10;2.47;;;0.00;99.90;-0.80;100830;;;;564737;251;24086;-80
2023/01/06 01:52:42;;;;;;;3.90;1.90;;;-0.10;99.90;-0.80;100820;;;;561144;253;24069;-80
2023/01/06 01:55:10;;;;;;;3.00;1.90;;;-0.10;99.90;-0.90;100822;;;;573333;246;25100;-78
2023/01/06 01:57:59;;;;;;;4.80;2.40;;;-0.10;99.90;-0.90;100818;;;;562108;251;24113;-81
2023/01/06 02:00:27;;;;;;;2.27;2.07;;;-0.10;99.90;-0.90;100824;;;;560749;253;24078;-79
2023/01/06 02:02:54;;;;;;;4.63;2.17;;;-0.20;99.90;-0.90;100835;;;;575852;247;24055;-81
2023/01/06 02:05:22;;;;;;;2.43;2.00;;;-0.20;99.90;-0.90;100846;;;;559801;251;24072;-78
2023/01/06 02:07:50;;;;;;;4.77;2.37;;;-0.20;99.90;-0.90;100854;;;;559514;251;24109;-80
2023/01/06 02:10:18;;;;;;;4.57;2.83;;;-0.20;99.90;-0.90;100846;;;;559939;250;24079;-79
2023/01/06 02:12:48;;;;;;;4.53;2.40;;;-0.20;99.90;-0.90;100846;;;;555182;251;35243;-80
2023/01/06 02:15:18;;;;;;;4.00;1.70;;;-0.20;99.90;-1.00;100857;;;;556810;250;35248;-80
2023/01/06 02:18:10;;;;;;;1.47;1.03;;;-0.20;99.90;-1.00;100861;;;;559912;250;24089;-79
2023/01/06 02:20:43;;;;;;;2.53;1.90;;;-0.20;99.90;-1.00;100857;;;;565629;250;24180;-79
2023/01/06 02:23:24;;;;;;;5.87;3.00;;;-0.20;99.90;-0.90;100872;;;;568938;252;24079;-79
2023/01/06 02:26:28;;;;;;;2.90;2.50;;;-0.20;99.90;-1.00;100872;;;;572670;248;24054;-78
2023/01/06 02:29:13;;;;;;;4.70;2.77;;;-0.20;99.90;-1.00;100878;;;;563484;251;24080;-78
2023/01/06 02:32:13;;;;;;;3.47;2.57;;;-0.20;99.90;-1.00;100868;;;;571431;251;25174;-78
2023/01/06 02:35:09;;;;;;;3.10;2.50;;;-0.20;99.90;-1.00;100867;;;;568028;252;24094;-79
2023/01/06 02:37:55;;;;;;;4.43;1.80;;;-0.20;99.90;-1.00;100872;;;;564819;251;24068;-79
2023/01/06 02:40:35;;;;;;;4.33;2.03;;;-0.20;99.90;-1.10;100860;;;;563530;251;24124;-78
2023/01/06 02:43:06;;;;;;;2.13;1.70;;;-0.30;99.90;-1.10;100860;;;;568350;253;24075;-78
2023/01/06 02:45:57;;;;;;;2.87;2.00;;;-0.30;99.90;-1.10;100869;;;;571996;248;24048;-77
2023/01/06 02:48:46;;;;;;;2.97;2.03;;;-0.30;99.90;-1.10;100879;;;;564370;254;24143;-78
2023/01/06 02:51:23;;;;;;;2.13;1.60;;;-0.30;99.90;-1.00;100870;;;;563703;251;24117;-77
2023/01/06 02:54:21;;;;;;;2.40;2.10;;;-0.20;99.90;-1.00;100879;;;;560267;250;24098;-78
2023/01/06 02:56:49;;;;;;;2.53;2.20;;;-0.20;99.90;-1.00;100873;;;;562801;251;24114;-78
2023/01/06 02:59:19;;;;;;;2.77;2.00;;;-0.20;99.90;-1.00;100865;;;;566027;251;24092;-79
2023/01/06 03:01:48;;;;;;;2.23;2.03;;;-0.20;99.90;-1.00;100853;;;;564335;250;24095;-77
2023/01/06 03:04:25;;;;;;;2.57;2.00;;;-0.20;99.90;-1.00;100850;;;;573836;250;24086;-78
2023/01/06 03:06:53;;;;;;;4.63;2.30;;;-0.20;99.90;-1.00;100844;;;;573332;250;24094;-77
2023/01/06 03:09:21;;;;;;;2.87;2.00;;;-0.20;99.90;-1.00;100849;;;;564827;251;24113;-78
2023/01/06 03:11:49;;;;;;;2.53;1.90;;;-0.20;99.90;-1.00;100847;;;;559387;252;24099;-78
2023/01/06 03:14:35;;;;;;;2.33;1.97;;;-0.20;99.90;-1.00;100844;;;;565948;250;24114;-78
2023/01/06 03:17:07;;;;;;;2.83;1.80;;;-0.20;99.90;-1.00;100852;;;;564041;251;24120;-77
2023/01/06 03:19:33;;;;;;;1.93;1.70;;;-0.20;99.90;-1.00;100843;;;;567140;253;24135;-77
2023/01/06 03:22:00;;;;;;;2.57;2.00;;;-0.20;99.90;-1.00;100857;;;;567061;249;24114;-77
2023/01/06 03:24:28;;;;;;;3.83;2.13;;;-0.20;99.90;-1.10;100847;;;;570371;252;24089;-77
2023/01/06 03:26:56;;;;;;;6.67;2.00;;;-0.20;99.90;-1.10;100853;;;;564514;251;24063;-78
2023/01/06 03:29:24;;;;;;;5.07;2.30;;;-0.20;99.90;-1.10;100844;;;;573513;250;24098;-78
2023/01/06 03:32:01;;;;;;;3.00;2.07;;;-0.20;99.90;-1.10;100850;;;;559117;251;24087;-77
2023/01/06 03:34:47;;;;;;;1.90;1.80;;;-0.20;99.90;-1.10;100856;;;;575795;249;24108;-77
2023/01/06 03:37:22;;;;;;;2.40;1.97;;;-0.20;99.90;-1.00;100851;;;;559932;251;24138;-76
2023/01/06 03:40:29;;;;;;;2.20;1.60;;;-0.30;99.90;-1.00;100849;;;;552057;253;24088;-76
2023/01/06 03:43:18;;;;;;;4.80;2.20;;;-0.20;99.90;-1.00;100859;;;;577765;248;24062;-76
2023/01/06 03:46:16;;;;;;;3.87;1.73;;;-0.20;99.90;-1.00;100863;;;;564065;251;24104;-77
2023/01/06 03:49:07;;;;;;;2.70;2.07;;;-0.20;99.90;-0.90;100870;;;;562258;251;24101;-78
2023/01/06 03:51:56;;;;;;;2.90;2.60;;;-0.20;99.90;-0.90;100869;;;;564785;250;24084;-77
2023/01/06 03:54:29;;;;;;;4.90;2.57;;;-0.10;99.90;-0.90;100870;;;;564275;251;24162;-81
2023/01/06 03:57:06;;;;;;;2.63;2.10;;;-0.10;99.90;-0.90;100869;;;;561838;251;24106;-80
2023/01/06 03:59:39;;;;;;;3.63;2.30;;;-0.10;99.90;-0.90;100867;;;;564625;250;24102;-80
2023/01/06 04:02:08;;;;;;;3.10;2.20;;;0.00;99.90;-0.90;100867;;;;573274;250;24103;-80
2023/01/06 04:04:36;;;;;;;3.10;2.00;;;-0.10;99.90;-0.90;100866;;;;570002;249;24095;-82
2023/01/06 04:07:08;;;;;;;5.83;2.63;;;0.00;99.90;-0.90;100866;;;;568284;250;24099;-78
2023/01/06 04:09:32;;;;;;;3.97;1.80;;;-0.10;99.90;-0.90;100873;;;;577208;245;24107;-77
2023/01/06 04:14:45;;;;;;;2.07;1.87;;;0.00;99.90;-0.90;100875;;;;569567;252;24080;-77
2023/01/06 04:17:13;;;;;;;4.33;2.73;;;-0.10;99.90;-0.90;100869;;;;581730;247;24054;-78
2023/01/06 04:19:42;;;;;;;4.33;2.23;;;-0.10;99.90;-0.90;100863;;;;565305;250;24092;-76
2023/01/06 04:22:10;;;;;;;4.63;2.10;;;-0.10;99.90;-0.90;100861;;;;560082;251;24101;-78
2023/01/06 04:24:38;;;;;;;2.03;1.90;;;-0.10;99.90;-0.90;100854;;;;558670;253;24066;-77
2023/01/06 04:27:06;;;;;;;2.23;2.10;;;-0.10;99.90;-0.90;100857;;;;575811;247;24094;-77
2023/01/06 04:29:34;;;;;;;3.40;1.67;;;-0.10;99.90;-0.90;100860;;;;566114;251;24084;-75
2023/01/06 04:32:04;;;;;;;2.10;1.70;;;-0.10;99.90;-0.90;100862;;;;559042;251;24108;-76
2023/01/06 04:34:32;;;;;;;2.83;2.53;;;-0.10;99.90;-0.90;100871;;;;558666;253;24065;-76
2023/01/06 04:37:00;;;;;;;3.20;1.93;;;-0.10;99.90;-0.90;100872;;;;575417;247;24063;-76
2023/01/06 04:39:28;;;;;;;3.73;2.27;;;-0.10;99.90;-0.90;100882;;;;565850;251;24113;-76
2023/01/06 04:41:56;;;;;;;2.70;2.13;;;-0.10;99.90;-0.90;100874;;;;559289;251;24076;-77
2023/01/06 04:44:27;;;;;;;2.60;2.40;;;0.00;99.90;-0.80;100883;;;;558249;251;24078;-77
2023/01/06 04:46:52;;;;;;;2.13;2.00;;;0.00;99.90;-0.80;100874;;;;571899;247;24079;-78
2023/01/06 04:49:20;;;;;;;2.67;1.90;;;0.00;99.90;-0.80;100879;;;;569288;251;24110;-77
2023/01/06 04:51:48;;;;;;;4.07;2.30;;;0.00;99.90;-0.80;100886;;;;567713;250;24094;-78
2023/01/06 04:54:16;;;;;;;2.70;2.17;;;0.00;99.90;-0.80;100883;;;;567418;251;24127;-77
2023/01/06 04:56:44;;;;;;;6.27;2.43;;;0.00;99.90;-0.80;100878;;;;576549;249;24090;-77
2023/01/06 04:59:12;;;;;;;2.43;2.03;;;0.00;99.90;-0.80;100883;;;;564700;251;24085;-77
2023/01/06 05:01:40;;;;;;;2.53;2.30;;;0.10;99.90;-0.80;100881;;;;576644;249;24068;-76
2023/01/06 05:04:08;;;;;;;4.27;2.53;;;0.00;99.90;-0.80;100886;;;;564723;251;24110;-77
2023/01/06 05:06:38;;;;;;;2.13;1.93;;;0.00;99.90;-0.80;100893;;;;559767;250;24063;-77
2023/01/06 05:09:05;;;;;;;2.23;1.77;;;0.00;99.90;-0.80;100889;;;;567336;250;24096;-77
2023/01/06 05:11:32;;;;;;;2.10;1.90;;;0.00;99.90;-0.80;100895;;;;568649;249;24106;-75
2023/01/06 05:14:04;;;;;;;2.50;1.87;;;0.00;99.90;-0.80;100893;;;;564322;251;24110;-77
2023/01/06 05:16:28;;;;;;;5.33;2.20;;;0.00;99.90;-0.80;100897;;;;561376;252;24082;-78
2023/01/06 05:18:56;;;;;;;2.83;2.20;;;0.00;99.90;-0.80;100894;;;;579324;247;25099;-76
2023/01/06 05:21:24;;;;;;;2.50;2.30;;;0.00;99.90;-0.80;100899;;;;580430;247;24085;-76
2023/01/06 05:23:52;;;;;;;2.60;2.23;;;0.00;99.90;-0.80;100908;;;;568536;250;24080;-77
2023/01/06 05:26:21;;;;;;;3.20;2.70;;;0.00;99.90;-0.80;100905;;;;565259;250;24123;-77
2023/01/06 05:28:49;;;;;;;4.27;2.57;;;0.00;99.90;-0.80;100908;;;;565214;251;24131;-77
2023/01/06 05:31:17;;;;;;;2.83;2.20;;;0.00;99.90;-0.80;100895;;;;562929;251;24089;-76
2023/01/06 05:33:45;;;;;;;2.77;2.13;;;0.00;99.90;-0.80;100892;;;;568318;251;24080;-78
2023/01/06 05:36:13;;;;;;;3.27;2.43;;;0.00;99.90;-0.80;100879;;;;562768;251;24061;-76
2023/01/06 05:38:41;;;;;;;3.03;2.33;;;0.00;99.90;-0.80;100880;;;;568095;251;24163;-77
2023/01/06 05:41:09;;;;;;;3.07;2.87;;;0.00;99.90;-0.90;100891;;;;565012;251;24115;-79
2023/01/06 05:43:37;;;;;;;4.93;2.90;;;0.00;99.90;-0.90;100882;;;;568143;250;24090;-76
2023/01/06 05:46:06;;;;;;;3.17;2.80;;;-0.10;99.90;-1.00;100871;;;;565415;251;25163;-77
2023/01/06 05:48:38;;;;;;;3.33;2.60;;;-0.10;99.90;-1.00;100893;;;;562267;250;24093;-76
2023/01/06 05:51:11;;;;;;;7.47;3.33;;;-0.10;99.90;-1.00;100891;;;;560508;253;24098;-77
2023/01/06 05:53:39;;;;;;;4.70;2.83;;;-0.10;99.90;-1.00;100894;;;;572693;248;24095;-76
2023/01/06 05:56:07;;;;;;;3.87;2.50;;;-0.10;99.90;-1.00;100896;;;;559680;251;24110;-76
2023/01/06 05:58:40;;;;;;;3.83;2.87;;;-0.20;99.90;-1.00;100902;;;;573338;250;24088;-77
2023/01/06 06:01:05;;;;;;;6.47;3.77;;;-0.20;99.90;-1.00;100904;;;;570205;250;24091;-78
2023/01/06 06:03:32;;;;;;;3.63;2.80;;;-0.20;99.90;-1.00;100906;;;;572871;250;24097;-76
2023/01/06 06:06:03;;;;;;;3.60;2.70;;;-0.20;99.90;-0.90;100899;;;;557788;253;24074;-77
2023/01/06 06:08:31;;;;;;;5.03;2.70;;;-0.20;99.90;-0.90;100901;;;;572359;247;24066;-76
2023/01/06 06:11:05;;;;;;;4.53;2.83;;;-0.10;99.90;-0.90;100904;;;;565637;251;24236;-76
2023/01/06 06:13:33;;;;;;;3.53;2.60;;;-0.10;99.90;-0.90;100901;;;;561065;251;24096;-79
2023/01/06 06:16:07;;;;;;;2.87;2.57;;;-0.10;99.90;-0.90;100891;;;;570674;251;24077;-76
2023/01/06 06:18:41;;;;;;;2.67;2.47;;;-0.10;99.90;-0.90;100890;;;;564179;250;24119;-76
2023/01/06 06:21:03;;;;;;;3.00;2.63;;;-0.10;99.90;-0.80;100896;;;;573100;250;24138;-76
2023/01/06 06:23:31;;;;;;;3.97;3.13;;;0.00;99.90;-0.90;100900;;;;572811;251;24101;-77
2023/01/06 06:25:59;;;;;;;2.90;2.50;;;-0.10;99.90;-0.90;100889;;;;564435;250;24081;-78
2023/01/06 06:28:27;;;;;;;4.00;2.57;;;-0.10;99.90;-0.90;100895;;;;559640;252;24063;-75
2023/01/06 06:30:55;;;;;;;3.57;2.93;;;0.00;99.90;-0.90;100891;;;;573456;246;24073;-77
2023/01/06 06:33:24;;;;;;;6.17;2.47;;;0.00;99.90;-0.90;100898;;;;566004;251;24068;-80
2023/01/06 06:35:58;;;;;;;3.97;2.67;;;-0.10;99.90;-0.90;100881;;;;568601;251;24116;-83
2023/01/06 06:38:29;;;;;;;2.90;2.60;;;-0.10;99.90;-1.00;100886;;;;560550;252;24133;-80
2023/01/06 06:40:55;;;;;;;5.37;2.80;;;-0.10;99.90;-1.00;100877;;;;564495;250;25151;-80
2023/01/06 06:43:23;;;;;;;4.30;2.40;;;-0.10;99.90;-1.00;100872;;;;559252;251;24066;-81
2023/01/06 06:45:51;;;;;;;3.53;2.60;;;-0.10;99.90;-0.90;100868;;;;576257;247;24066;-77
2023/01/06 06:48:19;;;;;;;5.23;3.37;;;-0.10;99.90;-0.90;100866;;;;565663;251;24487;-78
2023/01/06 06:50:47;;;;;;;3.13;2.83;;;-0.10;99.90;-0.90;100872;;;;559127;250;24102;-76
2023/01/06 06:53:14;;;;;;;2.70;2.50;;;-0.10;99.90;-1.00;100873;;;;561970;251;24072;-76
2023/01/06 06:55:42;;;;;;;4.57;2.60;;;-0.10;99.90;-0.90;100870;;;;562010;251;24141;-77
2023/01/06 06:58:11;;;;;;;6.00;2.57;;;-0.10;99.90;-0.90;100874;;;;569320;250;24071;-77
2023/01/06 07:00:39;;;;;;;3.03;2.73;;;-0.10;99.90;-1.00;100881;;;;576136;247;24055;-75
2023/01/06 07:03:08;;;;;;;2.87;2.60;;;-0.10;99.90;-1.00;100865;;;;566326;251;24080;-78
2023/01/06 07:05:36;;;;;;;5.10;3.13;;;-0.10;99.90;-1.00;100875;;;;560116;250;24073;-77
2023/01/06 07:08:03;;;;;;;4.07;3.13;;;-0.10;99.90;-0.90;100875;;;;573701;247;24092;-77
2023/01/06 07:10:32;;;;;;;3.87;2.70;;;-0.10;99.90;-1.00;100876;;;;572842;250;24148;-75
2023/01/06 07:12:59;;;;;;;3.53;3.10;;;-0.10;99.90;-0.90;100876;;;;559230;251;24094;-78
2023/01/06 07:15:27;;;;;;;5.50;2.60;;;-0.10;99.90;-0.90;100876;;;;558266;253;24056;-76
2023/01/06 07:17:55;;;;;;;3.17;2.90;;;-0.10;99.90;-0.90;100881;;;;575655;247;24049;-76
2023/01/06 07:20:23;;;;;;;4.25;2.97;;;-0.10;99.90;-0.90;100875;;;;559772;251;35253;-76
2023/01/06 07:22:52;;;;;;;5.03;3.30;;;-0.10;99.90;-0.90;100867;;;;559575;250;24072;-77
2023/01/06 07:25:23;;;;;;;3.50;2.93;;;-0.10;99.90;-0.90;100890;;;;557743;253;24116;-76
2023/01/06 07:27:48;;;;;;;4.30;3.00;;;0.00;99.90;-0.80;100889;;;;571673;248;24098;-77
2023/01/06 07:30:15;;;;;;;5.10;3.77;;;0.00;99.90;-0.80;100897;;;;564680;251;24084;-78
2023/01/06 07:32:43;;;;;;;4.07;3.30;;;-0.10;99.90;-0.80;100891;;;;567495;250;24073;-76
2023/01/06 07:35:12;;;;;;;4.57;3.30;;;0.00;99.90;-0.80;100900;;;;559367;250;24090;-77
2023/01/06 07:37:41;;;;;;;8.50;5.33;;;0.00;99.90;-0.80;100907;;;;576248;249;24155;-76
2023/01/06 07:40:09;;;;;;;12.07;6.80;;;0.00;99.90;-0.80;100901;;;;573686;247;24072;-77
2023/01/06 07:42:37;;;;;;;11.37;6.60;;;0.00;99.90;-0.80;100914;;;;565779;251;24144;-77
2023/01/06 07:45:06;;;;;;;5.37;3.80;;;0.00;99.90;-0.80;100894;;;;565051;251;24073;-76
2023/01/06 07:47:36;;;;;;;4.43;3.47;;;0.00;99.90;-0.80;100897;;;;564650;251;24120;-74
2023/01/06 07:50:03;;;;;;;5.43;4.00;;;0.00;99.90;-0.90;100904;;;;556981;253;24117;-75
2023/01/06 07:52:29;;;;;;;8.07;5.37;;;-0.10;99.90;-0.90;100904;;;;564057;251;24120;-76
2023/01/06 07:55:00;;;;;;;6.53;5.03;;;-0.10;99.90;-0.90;100897;;;;558775;253;24062;-75
2023/01/06 07:57:28;;;;;;;6.33;4.93;;;-0.10;99.90;-0.90;100890;;;;580525;247;24081;-75
2023/01/06 07:59:56;;;;;;;6.60;4.43;;;-0.20;99.90;-1.00;100900;;;;573474;250;24099;-76
2023/01/06 08:02:25;;;;;;;7.30;4.67;;;-0.20;99.90;-0.90;100904;;;;560299;250;24101;-76
2023/01/06 08:04:53;;;;;;;6.97;4.90;;;-0.20;99.90;-0.90;100905;;;;559740;251;24083;-76
2023/01/06 08:07:21;;;;;;;5.63;4.13;;;-0.10;99.90;-0.90;100922;;;;558426;253;24083;-78
2023/01/06 08:09:49;;;;;;;3.97;3.30;;;-0.10;99.90;-0.90;100915;;;;575951;247;24040;-76
2023/01/06 08:12:20;;;;;;;5.67;4.20;;;-0.10;99.90;-0.90;100903;;;;569010;251;24110;-75
2023/01/06 08:14:45;;;;;;;6.40;3.53;;;-0.10;99.90;-0.90;100901;;;;568977;252;24118;-76
2023/01/06 08:17:16;;;;;;;4.78;3.37;;;-0.10;99.90;-0.90;100904;;;;554392;251;35244;-75
2023/01/06 08:19:41;;;;;;;4.50;3.13;;;-0.10;99.90;-0.90;100887;;;;561131;251;24194;-75
2023/01/06 08:22:09;;;;;;;3.63;3.07;;;-0.10;99.90;-0.80;100883;;;;561920;252;24100;-79
2023/01/06 08:24:38;;;;;;;3.60;3.20;;;0.00;99.90;-0.80;100877;;;;564919;250;24118;-75
2023/01/06 08:27:06;;;;;;;3.77;2.83;;;0.00;99.90;-0.80;100872;;;;564713;251;24249;-76
2023/01/06 08:29:34;;;;;;;3.23;2.87;;;0.00;99.90;-0.80;100858;;;;568329;250;24076;-76
2023/01/06 08:32:02;;;;;;;4.47;2.90;;;0.00;99.90;-0.80;100857;;;;567499;251;24129;-75
2023/01/06 08:34:29;;;;;;;2.60;2.40;;;0.00;99.90;-0.80;100861;;;;573749;250;24097;-78
2023/01/06 08:36:57;;;;;;;3.03;2.37;;;0.00;99.90;-0.80;100850;;;;567876;251;25119;-76
2023/01/06 08:39:25;;;;;;;6.27;3.67;;;0.00;99.90;-0.80;100852;;;;567875;250;24091;-75
2023/01/06 08:41:53;;;;;;;3.47;3.07;;;0.00;99.90;-0.80;100847;;;;568300;251;24088;-75
2023/01/06 08:44:21;;;;;;;6.10;3.30;;;0.00;99.90;-0.80;100850;;;;576712;249;24064;-78
2023/01/06 08:46:49;;;;;;;3.90;3.47;;;0.00;99.90;-0.90;100854;;;;565222;250;24084;-79
2023/01/06 08:49:18;;;;;;;8.40;5.03;;;-0.10;99.90;-0.80;100847;;;;568596;250;24075;-74
2023/01/06 08:51:46;;;;;;;7.10;4.43;;;-0.10;99.90;-0.80;100847;;;;574444;249;24106;-77
2023/01/06 08:54:14;;;;;;;8.00;4.27;;;-0.10;99.90;-0.90;100861;;;;560568;250;24077;-76
2023/01/06 08:56:45;;;;;;;7.73;4.20;;;-0.10;99.90;-0.90;100862;;;;558964;252;24079;-81
2023/01/06 08:59:13;;;;;;;5.37;4.03;;;-0.10;99.90;-0.90;100864;;;;576632;247;24078;-81
2023/01/06 09:01:44;;;;;;;6.50;4.47;;;-0.10;99.90;-1.00;100860;;;;566392;251;24084;-78
2023/01/06 09:04:15;;;;;;;5.73;4.00;;;-0.20;99.90;-1.00;100865;;;;564734;251;24092;-77
2023/01/06 09:06:40;;;;;;;4.57;3.87;;;-0.20;99.90;-1.00;100862;;;;564355;253;24083;-76
2023/01/06 09:09:11;;;;;;;6.90;4.07;;;-0.20;99.90;-1.00;100872;;;;572233;247;24052;-76
2023/01/06 09:11:45;;;;;;;7.50;4.67;;;-0.20;99.90;-1.00;100872;;;;565864;251;24105;-78
2023/01/06 09:14:10;;;;;;;7.77;4.20;;;-0.20;99.90;-1.00;100869;;;;559459;251;24095;-77
2023/01/06 09:16:37;;;;;;;7.13;4.53;;;-0.20;99.90;-1.00;100869;;;;574089;250;25151;-80
2023/01/06 09:19:05;;;;;;;4.20;3.80;;;-0.20;99.90;-1.00;100872;;;;559946;251;24099;-80
2023/01/06 09:21:34;;;;;;;5.03;3.43;;;-0.20;99.90;-0.90;100868;;;;558803;251;24057;-75
2023/01/06 09:24:02;;;;;;;5.27;3.57;;;-0.20;99.90;-0.90;100869;;;;575856;247;24056;-75
2023/01/06 09:26:30;;;;;;;6.83;3.73;;;-0.10;99.90;-0.90;100862;;;;566049;251;24088;-76
2023/01/06 09:28:58;;;;;;;8.00;4.67;;;-0.10;99.90;-0.80;100868;;;;559177;250;24103;-75
2023/01/06 09:31:26;;;;;;;7.70;5.27;;;0.00;99.90;-0.70;100872;;;;558934;251;24090;-77
2023/01/06 09:33:54;;;;;;;5.73;5.00;;;0.00;99.90;-0.70;100860;;;;576269;249;24087;-75
2023/01/06 09:36:22;;;;;;;9.43;4.90;;;0.10;99.90;-0.60;100864;;;;559443;251;35265;-76
2023/01/06 09:38:49;;;;;;;4.80;2.97;;;0.20;99.90;-0.60;100839;;;;573511;250;24094;-75
2023/01/06 09:41:47;;;;;;;5.27;4.27;;;0.20;99.90;-0.60;100836;;;;567882;251;24155;-77
2023/01/06 09:44:33;;;;;;;6.17;4.13;;;0.20;99.90;-0.60;100830;;;;568512;249;24111;-76
2023/01/06 09:47:01;;;;;;;7.83;4.87;;;0.20;99.90;-0.60;100813;;;;581434;247;24060;-76
2023/01/06 09:49:40;;;;;;;6.70;5.23;;;0.20;99.90;-0.70;100807;;;;572330;248;24087;-76
2023/01/06 09:52:17;;;;;;;6.30;4.97;;;0.10;99.90;-0.60;100803;;;;564892;251;24092;-76
2023/01/06 09:55:04;;;;;;;7.50;5.15;;;0.20;99.90;-0.60;100806;;;;559845;251;35302;-76
2023/01/06 09:57:37;;;;;;;4.67;3.80;;;0.20;99.90;-0.60;100811;;;;572396;250;24091;-75
2023/01/06 10:00:08;;;;;;;8.53;5.50;;;0.20;99.90;-0.50;100812;;;;562092;251;24099;-75
2023/01/06 10:02:39;;;;;;;6.93;5.47;;;0.20;99.90;-0.60;100825;;;;565251;251;24081;-76
2023/01/06 10:05:04;;;;;;;8.90;5.67;;;0.20;99.90;-0.70;100821;;;;565519;251;24098;-75
2023/01/06 10:07:40;;;;;;;9.97;5.77;;;0.20;99.90;-0.70;100830;;;;563031;248;24140;-75
2023/01/06 10:10:27;;;;;;;7.80;6.03;;;0.10;99.90;-0.80;100813;;;;567814;251;24084;-76
2023/01/06 10:13:26;;;;;;;7.70;5.60;;;0.10;99.90;-0.80;100787;;;;567164;253;25149;-76
2023/01/06 10:16:03;;;;;;;8.00;5.63;;;0.00;99.90;-0.70;100796;;;;571107;248;24098;-75
2023/01/06 10:18:45;;;;;;;9.30;5.80;;;0.10;99.90;-0.70;100795;;;;573664;247;24172;-75
2023/01/06 10:21:40;;;;;;;7.97;5.87;;;0.10;99.90;-0.70;100787;;;;567868;250;35382;-76
2023/01/06 10:24:48;;;;;;;6.70;5.07;;;0.10;99.90;-0.70;100783;;;;564625;250;24089;-75
2023/01/06 10:27:27;;;;;;;7.37;5.00;;;0.10;99.90;-0.70;100779;;;;569103;249;24084;-75
2023/01/06 10:29:56;;;;;;;8.97;6.60;;;0.10;99.90;-0.70;100774;;;;571711;247;24071;-75
2023/01/06 10:32:24;;;;;;;8.10;5.57;;;0.10;99.90;-0.80;100761;;;;564893;251;24088;-75
2023/01/06 10:34:52;;;;;;;9.03;5.33;;;0.00;99.90;-0.80;100764;;;;567895;251;24123;-76
2023/01/06 10:37:20;;;;;;;10.67;5.60;;;0.00;99.90;-0.90;100760;;;;568066;251;24071;-75
2023/01/06 10:39:48;;;;;;;10.33;5.60;;;-0.10;99.90;-1.00;100754;;;;572383;251;24191;-76
2023/01/06 10:45:16;;;;;;;8.73;5.70;;;-0.20;99.90;-0.90;100754;;;;564170;250;24088;-75
2023/01/06 10:47:44;;;;;;;10.83;6.23;;;-0.20;99.90;-0.90;100757;;;;558675;251;25104;-78
2023/01/06 10:50:15;;;;;;;8.67;5.77;;;-0.10;99.90;-1.00;100751;;;;571863;248;24111;-76
2023/01/06 10:52:44;;;;;;;6.33;5.17;;;-0.10;99.90;-0.90;100752;;;;565567;250;24097;-74
2023/01/06 10:55:37;;;;;;;7.87;5.47;;;-0.20;99.90;-0.90;100760;;;;565032;251;24097;-75
2023/01/06 10:58:07;;;;;;;7.87;6.10;;;-0.10;99.90;-1.00;100764;;;;561536;252;24099;-76
2023/01/06 11:00:35;;;;;;;8.03;5.73;;;-0.20;99.90;-1.00;100763;;;;556204;251;24152;-75
2023/01/06 11:03:02;;;;;;;11.67;5.93;;;-0.20;99.90;-0.90;100765;;;;564671;250;24080;-75
2023/01/06 11:05:33;;;;;;;7.70;5.70;;;-0.20;99.90;-0.80;100753;;;;564291;251;24084;-78
2023/01/06 11:08:01;;;;;;;10.63;6.20;;;-0.10;99.90;-0.80;100760;;;;560718;252;24177;-75
2023/01/06 11:10:45;;;;;;;10.53;6.00;;;0.00;99.90;-0.80;100761;;;;565078;251;24153;-76
2023/01/06 11:13:25;;;;;;;12.53;6.63;;;0.00;99.90;-0.70;100752;;;;559393;250;24141;-76
2023/01/06 11:15:56;;;;;;;10.07;6.07;;;0.00;99.90;-0.80;100743;;;;572773;247;24098;-74
2023/01/06 11:18:24;;;;;;;11.50;6.77;;;0.00;99.90;-0.80;100744;;;;565127;251;24096;-76
2023/01/06 11:21:04;;;;;;;8.10;4.83;;;0.00;99.90;-0.80;100736;;;;568647;250;46549;-76
2023/01/06 11:23:34;;;;;;;9.48;5.18;;;0.00;99.90;-0.80;100732;;;;566088;248;34978;-78
2023/01/06 11:26:07;;;;;;;5.67;4.90;;;0.00;99.90;-0.70;100729;;;;577614;247;24153;-75
2023/01/06 11:28:34;;;;;;;6.70;3.27;;;0.10;99.90;-0.70;100717;;;;566973;250;24080;-75
2023/01/06 11:31:14;;;;;;;9.83;6.00;;;0.10;99.90;-0.70;100711;;;;567968;251;24163;-76
2023/01/06 11:33:56;;;;;;;10.10;7.03;;;0.10;99.90;-0.60;100705;;;;564395;251;24101;-75
2023/01/06 11:36:24;;;;;;;11.60;7.40;;;0.20;99.90;-0.60;100704;;;;573881;250;24122;-76